This is the latest recevied weather packets stored in our database for station/object JQ3CCU-10. If no packets are shown the sender has not sent any weather packets the latest 10 day(s).
| Time | Temp. | Humidity | Pressure | Rain* | Wind** | Luminosity | Snow |
|---|---|---|---|---|---|---|---|
| 1777926255 | 17.22° C | 69% | - | - | 0 m/s | - | - |
| 1777924455 | 17.22° C | 69% | - | - | 0 m/s | - | - |
| 1777922655 | 17.78° C | 69% | - | - | 0 m/s | - | - |
| 1777920855 | 17.78° C | 69% | - | - | 0 m/s | - | - |
| 1777919055 | 17.78° C | 70% | - | - | 0 m/s | - | - |
| 1777917255 | 17.78° C | 70% | - | - | 0 m/s | - | - |
| 1777915455 | 18.33° C | 70% | - | - | 0 m/s | - | - |
| 1777913655 | 18.33° C | 70% | - | - | 0 m/s | - | - |
| 1777911855 | 18.89° C | 69% | - | - | 0 m/s | - | - |
| 1777910055 | 18.89° C | 69% | - | - | 0 m/s | - | - |
| 1777908255 | 19.44° C | 75% | - | - | 0 m/s | - | - |
| 1777906455 | 19.44° C | 75% | - | - | 0 m/s | - | - |
| 1777904655 | 20° C | 66% | - | - | 0 m/s | - | - |
| 1777902855 | 20° C | 66% | - | - | 0 m/s | - | - |
| 1777901055 | 20.56° C | 64% | - | - | 0 m/s | - | - |
| 1777899255 | 20.56° C | 64% | - | - | 0 m/s | - | - |
| 1777897455 | 21.11° C | 64% | - | - | 0 m/s | - | - |
| 1777895655 | 21.11° C | 64% | - | - | 0 m/s | - | - |
| 1777893855 | 21.67° C | 64% | - | - | 0 m/s | - | - |
| 1777892055 | 21.67° C | 64% | - | - | 0 m/s | - | - |
| 1777890255 | 22.78° C | 61% | - | - | 0 m/s | - | - |
| 1777888455 | 22.78° C | 61% | - | - | 0 m/s | - | - |
| 1777886655 | 24.44° C | 57% | - | - | 0 m/s | - | - |
| 1777884855 | 24.44° C | 57% | - | - | 0 m/s | - | - |
| 1777883055 | 26.11° C | 52% | - | - | 0 m/s | - | - |
* Rain since midnight (hover to see other rain measurements)
** Current wind speed in m/s (hover to see current wind gust speed)